createdAt,value
2018-09-20T00:01:32.175Z,18.90
2018-09-20T00:04:01.043Z,18.90
2018-09-20T00:06:29.904Z,19.00
2018-09-20T00:08:58.708Z,18.90
2018-09-20T00:11:27.566Z,18.90
2018-09-20T00:13:56.343Z,18.90
2018-09-20T00:16:25.196Z,18.90
2018-09-20T00:18:53.987Z,18.90
2018-09-20T00:21:22.799Z,18.90
2018-09-20T00:23:51.608Z,18.90
2018-09-20T00:26:20.484Z,18.90
2018-09-20T00:28:49.338Z,18.90
2018-09-20T00:31:18.147Z,18.90
2018-09-20T00:33:47.000Z,18.90
2018-09-20T00:36:15.808Z,18.80
2018-09-20T00:38:44.644Z,18.80
2018-09-20T00:41:13.540Z,18.80
2018-09-20T00:44:04.145Z,18.50
2018-09-20T00:46:33.008Z,18.40
2018-09-20T00:49:01.752Z,18.40
2018-09-20T00:51:30.569Z,18.40
2018-09-20T00:53:59.328Z,18.50
2018-09-20T00:56:28.137Z,18.40
2018-09-20T00:58:57.048Z,18.40
2018-09-20T01:01:26.028Z,18.30
2018-09-20T01:03:54.844Z,18.20
2018-09-20T01:06:24.435Z,18.30
2018-09-20T01:08:53.297Z,18.20
2018-09-20T01:11:22.216Z,18.20
2018-09-20T01:13:51.046Z,18.00
2018-09-20T01:16:19.815Z,18.00
2018-09-20T01:18:48.624Z,18.10
2018-09-20T01:21:17.405Z,18.10
2018-09-20T01:23:46.229Z,18.00
2018-09-20T01:26:15.022Z,18.00
2018-09-20T01:28:43.809Z,17.90
2018-09-20T01:31:12.599Z,17.80
2018-09-20T01:33:41.421Z,17.70
2018-09-20T01:36:10.240Z,17.60
2018-09-20T01:38:39.033Z,17.50
2018-09-20T01:41:07.844Z,17.50
2018-09-20T01:43:36.657Z,17.40
2018-09-20T01:46:05.473Z,17.40
2018-09-20T01:48:34.306Z,17.40
2018-09-20T01:51:03.092Z,17.50
2018-09-20T01:53:31.892Z,17.50
2018-09-20T01:56:00.695Z,17.50
2018-09-20T01:58:29.480Z,17.60
2018-09-20T02:00:58.295Z,17.60
2018-09-20T02:03:27.112Z,17.60
2018-09-20T02:05:55.870Z,17.60
2018-09-20T02:08:24.681Z,17.70
2018-09-20T02:10:53.464Z,17.50
2018-09-20T02:13:22.292Z,17.30
2018-09-20T02:15:51.111Z,17.30
2018-09-20T02:18:19.915Z,17.20
2018-09-20T02:20:48.729Z,17.10
2018-09-20T02:23:17.532Z,17.20
2018-09-20T02:25:46.355Z,17.30
2018-09-20T02:28:15.149Z,17.40
2018-09-20T02:30:43.944Z,17.40
2018-09-20T02:33:12.745Z,17.50
2018-09-20T02:35:41.559Z,17.40
2018-09-20T02:38:10.416Z,17.40
2018-09-20T02:40:39.233Z,17.40
2018-09-20T02:43:08.068Z,17.40
2018-09-20T02:45:36.923Z,17.50
2018-09-20T02:48:05.749Z,17.40
2018-09-20T02:50:34.595Z,17.20
2018-09-20T02:53:03.391Z,17.10
2018-09-20T02:55:32.166Z,17.10
2018-09-20T02:58:00.911Z,17.00
2018-09-20T03:00:29.715Z,17.00
2018-09-20T03:02:58.592Z,16.90
2018-09-20T03:05:27.412Z,16.90
2018-09-20T03:07:56.246Z,16.60
2018-09-20T03:10:25.008Z,16.60
2018-09-20T03:12:53.790Z,16.50
2018-09-20T03:15:22.674Z,16.60
2018-09-20T03:17:51.480Z,16.60
2018-09-20T03:20:20.278Z,16.60
2018-09-20T03:22:49.024Z,16.60
2018-09-20T03:25:17.920Z,16.70
2018-09-20T03:27:46.726Z,16.60
2018-09-20T03:30:15.582Z,16.50
2018-09-20T03:32:44.443Z,16.40
2018-09-20T03:35:13.232Z,16.40
2018-09-20T03:37:42.039Z,16.40
2018-09-20T03:40:10.932Z,16.40
2018-09-20T03:42:39.731Z,16.30
2018-09-20T03:45:08.824Z,16.30
2018-09-20T03:47:37.641Z,16.20
2018-09-20T03:50:06.793Z,16.10
2018-09-20T03:52:35.693Z,16.00
2018-09-20T03:55:04.672Z,16.20
2018-09-20T03:57:33.433Z,16.30
2018-09-20T04:00:02.268Z,16.40
2018-09-20T04:02:31.032Z,16.40
2018-09-20T04:05:06.864Z,16.40
2018-09-20T04:07:35.660Z,16.40
2018-09-20T04:10:04.616Z,16.30
2018-09-20T04:12:34.386Z,16.20
2018-09-20T04:15:03.196Z,16.20
2018-09-20T04:17:32.028Z,16.20
2018-09-20T04:20:00.807Z,16.20
2018-09-20T04:22:29.636Z,16.00
2018-09-20T04:24:58.459Z,16.10
2018-09-20T04:27:27.241Z,16.00
2018-09-20T04:29:56.101Z,16.00
2018-09-20T04:32:24.910Z,16.00
2018-09-20T04:34:53.767Z,16.10
2018-09-20T04:37:22.590Z,16.00
2018-09-20T04:39:51.372Z,16.00
2018-09-20T04:42:20.204Z,15.90
2018-09-20T04:44:49.024Z,15.90
2018-09-20T04:47:17.832Z,15.80
2018-09-20T04:49:46.650Z,15.80
2018-09-20T04:52:15.440Z,15.80
2018-09-20T04:54:44.274Z,15.80
2018-09-20T04:57:14.414Z,15.70
2018-09-20T04:59:43.699Z,15.60
2018-09-20T05:02:14.810Z,15.60
2018-09-20T05:04:43.706Z,15.70
2018-09-20T05:07:12.864Z,15.70
2018-09-20T05:09:41.664Z,15.70
2018-09-20T05:12:10.452Z,15.70
2018-09-20T05:14:39.413Z,15.60
2018-09-20T05:17:08.504Z,15.60
2018-09-20T05:19:37.361Z,15.50
2018-09-20T05:22:06.481Z,15.50
2018-09-20T05:24:35.520Z,15.60
2018-09-20T05:27:04.377Z,15.60
2018-09-20T05:29:33.476Z,15.60
2018-09-20T05:32:02.308Z,15.60
2018-09-20T05:34:31.111Z,15.40
2018-09-20T05:36:59.867Z,15.50
2018-09-20T05:39:28.968Z,15.50
2018-09-20T05:41:57.732Z,15.50
2018-09-20T05:44:26.588Z,15.40
2018-09-20T05:46:55.721Z,15.40
2018-09-20T05:49:24.520Z,15.40
2018-09-20T05:51:53.364Z,15.50
2018-09-20T05:54:22.244Z,15.40
2018-09-20T05:56:51.043Z,15.30
2018-09-20T05:59:19.903Z,15.20
2018-09-20T06:01:49.156Z,15.20
2018-09-20T06:04:18.273Z,15.30
2018-09-20T06:06:47.056Z,15.20
2018-09-20T06:09:15.857Z,15.30
2018-09-20T06:11:44.646Z,15.30
2018-09-20T06:14:13.770Z,15.30
2018-09-20T06:16:42.593Z,15.30
2018-09-20T06:19:11.404Z,15.40
2018-09-20T06:21:40.477Z,15.40
2018-09-20T06:24:09.570Z,15.30
2018-09-20T06:26:38.643Z,15.20
2018-09-20T06:29:07.806Z,15.20
2018-09-20T06:31:36.936Z,15.30
2018-09-20T06:34:06.232Z,15.40
2018-09-20T06:36:35.447Z,15.50
2018-09-20T06:39:06.263Z,15.50
2018-09-20T06:41:35.312Z,15.40
2018-09-20T06:44:04.564Z,15.30
2018-09-20T06:46:33.825Z,15.40
2018-09-20T06:49:02.852Z,15.50
2018-09-20T06:51:32.105Z,15.60
2018-09-20T06:54:01.300Z,15.60
2018-09-20T06:56:30.246Z,15.70
2018-09-20T06:58:59.332Z,15.80
2018-09-20T07:01:28.425Z,15.90
2018-09-20T07:03:57.625Z,15.90
2018-09-20T07:06:26.491Z,16.00
2018-09-20T07:08:55.304Z,16.00
2018-09-20T07:11:24.093Z,16.10
2018-09-20T07:13:52.933Z,16.10
2018-09-20T07:16:21.952Z,16.20
2018-09-20T07:18:51.125Z,16.30
2018-09-20T07:21:20.013Z,16.40
2018-09-20T07:23:49.047Z,16.40
2018-09-20T07:26:18.079Z,16.40
2018-09-20T07:28:47.156Z,16.40
2018-09-20T07:31:15.996Z,16.50
2018-09-20T07:33:45.150Z,16.50
2018-09-20T07:36:13.914Z,16.50
2018-09-20T07:38:42.747Z,16.60
2018-09-20T07:41:11.880Z,16.60
2018-09-20T07:43:40.792Z,16.70
2018-09-20T07:46:09.589Z,16.70
2018-09-20T07:48:38.384Z,16.80
2018-09-20T07:51:07.245Z,16.90
2018-09-20T07:53:36.083Z,16.90
2018-09-20T07:56:04.994Z,17.00
2018-09-20T07:58:33.795Z,17.00
2018-09-20T08:01:02.608Z,17.10
2018-09-20T08:03:31.400Z,17.10
2018-09-20T08:06:00.196Z,17.20
2018-09-20T08:08:29.174Z,17.20
2018-09-20T08:10:57.963Z,17.20
2018-09-20T08:13:26.772Z,17.30
2018-09-20T08:15:55.684Z,17.40
2018-09-20T08:18:24.472Z,17.40
2018-09-20T08:20:53.324Z,17.50
2018-09-20T08:23:22.137Z,17.50
2018-09-20T08:25:50.957Z,17.50
2018-09-20T08:28:19.747Z,17.50
2018-09-20T08:30:48.525Z,17.60
2018-09-20T08:33:17.370Z,17.70
2018-09-20T08:35:46.206Z,17.70
2018-09-20T08:38:14.998Z,17.80
2018-09-20T08:40:43.777Z,17.80
2018-09-20T08:43:12.559Z,17.90
2018-09-20T08:45:41.343Z,17.90
2018-09-20T08:48:10.128Z,18.00
2018-09-20T08:50:38.985Z,18.00
2018-09-20T08:53:07.787Z,18.10
2018-09-20T08:55:36.581Z,18.10
2018-09-20T08:58:05.528Z,18.20
2018-09-20T09:00:34.372Z,18.20
2018-09-20T09:03:03.217Z,18.30
2018-09-20T09:05:32.017Z,18.30
2018-09-20T09:08:00.804Z,18.40
2018-09-20T09:10:29.640Z,18.40
2018-09-20T09:12:58.413Z,18.50
2018-09-20T09:15:27.325Z,18.50
2018-09-20T09:17:56.135Z,18.60
2018-09-20T09:20:24.944Z,18.60
2018-09-20T09:22:53.741Z,18.70
2018-09-20T09:25:22.609Z,18.70
2018-09-20T09:27:51.485Z,18.80
2018-09-20T09:30:20.369Z,18.90
2018-09-20T09:32:49.164Z,18.90
2018-09-20T09:35:18.004Z,18.90
2018-09-20T09:37:46.804Z,19.00
2018-09-20T09:40:15.631Z,19.00
2018-09-20T09:42:44.416Z,19.10
2018-09-20T09:45:13.246Z,19.10
2018-09-20T09:47:42.071Z,19.20
2018-09-20T09:50:10.933Z,19.30
2018-09-20T09:52:39.760Z,19.40
2018-09-20T09:55:08.563Z,19.40
2018-09-20T09:57:37.353Z,19.40
2018-09-20T10:00:06.293Z,19.50
2018-09-20T10:02:35.151Z,19.50
2018-09-20T10:05:03.963Z,19.60
2018-09-20T10:07:33.083Z,19.70
2018-09-20T10:10:01.851Z,19.70
2018-09-20T10:12:30.612Z,19.80
2018-09-20T10:14:59.511Z,19.80
2018-09-20T10:17:28.323Z,19.90
2018-09-20T10:19:57.150Z,20.00
2018-09-20T10:22:26.053Z,20.10
2018-09-20T10:24:54.880Z,20.20
2018-09-20T10:27:23.776Z,20.30
2018-09-20T10:29:52.625Z,20.40
2018-09-20T10:32:21.550Z,20.40
2018-09-20T10:34:50.391Z,20.50
2018-09-20T10:37:19.248Z,20.60
2018-09-20T10:39:54.785Z,20.70
2018-09-20T10:42:23.651Z,20.80
2018-09-20T10:44:52.527Z,21.00
2018-09-20T10:47:21.482Z,21.10
2018-09-20T10:49:50.338Z,21.20
2018-09-20T10:52:19.139Z,21.40
2018-09-20T10:54:47.971Z,21.50
2018-09-20T10:57:16.995Z,21.70
2018-09-20T10:59:45.838Z,21.80
2018-09-20T11:02:14.690Z,22.00
2018-09-20T11:04:43.643Z,22.00
2018-09-20T11:07:12.473Z,22.20
2018-09-20T11:09:41.384Z,22.30
2018-09-20T11:12:10.251Z,22.40
2018-09-20T11:14:39.123Z,22.50
2018-09-20T11:17:07.993Z,22.70
2018-09-20T11:19:36.803Z,22.70
2018-09-20T11:22:05.692Z,22.80
2018-09-20T11:24:34.479Z,22.80
2018-09-20T11:27:03.311Z,23.00
2018-09-20T11:29:32.128Z,23.00
2018-09-20T11:32:00.987Z,23.10
2018-09-20T11:34:29.846Z,23.30
2018-09-20T11:36:58.699Z,23.40
2018-09-20T11:39:27.528Z,23.50
2018-09-20T11:41:56.387Z,23.60
2018-09-20T11:44:25.252Z,23.70
2018-09-20T11:46:54.422Z,23.80
2018-09-20T11:49:23.573Z,23.90
2018-09-20T11:51:52.752Z,24.10
2018-09-20T11:54:21.535Z,24.20
2018-09-20T11:56:50.342Z,24.30
2018-09-20T11:59:19.198Z,24.40
2018-09-20T12:01:48.091Z,24.40
2018-09-20T12:04:16.845Z,24.40
2018-09-20T12:06:45.717Z,24.50
2018-09-20T12:09:14.529Z,24.60
2018-09-20T12:11:43.361Z,24.70
2018-09-20T12:14:12.174Z,24.70
2018-09-20T12:16:41.017Z,24.90
2018-09-20T12:19:09.811Z,24.90
2018-09-20T12:21:38.600Z,25.00
2018-09-20T12:24:07.402Z,25.10
2018-09-20T12:26:36.197Z,25.20
2018-09-20T12:29:05.398Z,25.40
2018-09-20T12:31:34.404Z,25.40
2018-09-20T12:34:03.485Z,25.50
2018-09-20T12:36:32.393Z,25.60
2018-09-20T12:39:01.180Z,25.70
2018-09-20T12:41:30.060Z,25.80
2018-09-20T12:43:58.828Z,26.00
2018-09-20T12:46:27.651Z,26.00
2018-09-20T12:48:56.504Z,26.10
2018-09-20T12:51:25.317Z,26.20
2018-09-20T12:53:55.631Z,26.20
2018-09-20T12:56:24.470Z,26.30
2018-09-20T12:58:53.305Z,26.40
2018-09-20T13:01:22.589Z,26.50
2018-09-20T13:03:51.858Z,26.70
2018-09-20T13:06:20.668Z,26.70
2018-09-20T13:08:49.491Z,26.80
2018-09-20T13:11:18.842Z,26.90
2018-09-20T13:13:48.038Z,26.90
2018-09-20T13:16:16.873Z,27.00
2018-09-20T13:18:45.819Z,27.10
2018-09-20T13:21:14.665Z,27.20
2018-09-20T13:23:43.478Z,27.20
2018-09-20T13:26:12.466Z,27.20
2018-09-20T13:28:41.321Z,27.30
2018-09-20T13:31:10.178Z,27.30
2018-09-20T13:33:38.996Z,27.40
2018-09-20T13:36:07.938Z,27.50
2018-09-20T13:38:36.880Z,27.50
2018-09-20T13:41:06.044Z,27.50
2018-09-20T13:43:34.986Z,27.50
2018-09-20T13:46:04.203Z,27.50
2018-09-20T13:48:33.360Z,27.50
2018-09-20T13:51:02.524Z,27.60
2018-09-20T13:53:31.748Z,27.50
2018-09-20T13:56:00.725Z,27.50
2018-09-20T13:58:29.732Z,27.50
2018-09-20T14:00:58.692Z,27.60
2018-09-20T14:03:27.744Z,27.60
2018-09-20T14:05:56.905Z,27.60
2018-09-20T14:09:11.234Z,27.60
2018-09-20T14:11:40.750Z,27.60
2018-09-20T14:14:09.668Z,27.70
2018-09-20T14:16:38.701Z,27.70
2018-09-20T14:19:07.691Z,27.70
2018-09-20T14:21:36.885Z,27.70
2018-09-20T14:24:05.792Z,27.70
2018-09-20T14:26:34.689Z,27.70
2018-09-20T14:29:03.548Z,27.60
2018-09-20T14:31:32.404Z,27.60
2018-09-20T14:34:01.224Z,27.70
2018-09-20T14:36:30.322Z,27.70
2018-09-20T14:38:59.242Z,27.70
2018-09-20T14:41:28.086Z,27.70
2018-09-20T14:43:56.905Z,27.80
2018-09-20T14:46:25.725Z,27.80
2018-09-20T14:48:54.721Z,27.80
2018-09-20T14:51:23.579Z,27.80
2018-09-20T14:53:52.379Z,27.80
2018-09-20T14:56:21.277Z,27.70
2018-09-20T14:58:50.874Z,27.70
2018-09-20T15:01:19.703Z,27.80
2018-09-20T15:03:48.561Z,27.80
2018-09-20T15:06:17.470Z,27.80
2018-09-20T15:08:46.342Z,27.80
2018-09-20T15:11:15.317Z,27.80
2018-09-20T15:13:44.169Z,27.90
2018-09-20T15:16:12.989Z,27.90
2018-09-20T15:18:41.910Z,27.90
2018-09-20T15:21:10.812Z,27.90
2018-09-20T15:23:39.607Z,28.00
2018-09-20T15:26:09.577Z,28.00
2018-09-20T15:28:38.389Z,28.00
2018-09-20T15:31:07.404Z,28.00
2018-09-20T15:33:36.541Z,28.00
2018-09-20T15:36:05.384Z,28.00
2018-09-20T15:38:34.168Z,28.00
2018-09-20T15:41:03.170Z,28.00
2018-09-20T15:43:32.011Z,28.00
2018-09-20T15:46:01.284Z,28.00
2018-09-20T15:48:30.563Z,28.00
2018-09-20T15:50:59.440Z,28.00
2018-09-20T15:53:28.248Z,27.90
2018-09-20T15:55:57.349Z,27.90
2018-09-20T15:58:26.481Z,27.90
2018-09-20T16:00:55.636Z,27.90
2018-09-20T16:03:24.631Z,27.80
2018-09-20T16:05:53.645Z,27.80
2018-09-20T16:08:22.808Z,27.80
2018-09-20T16:10:52.000Z,27.70
2018-09-20T16:13:21.003Z,27.60
2018-09-20T16:15:50.085Z,27.60
2018-09-20T16:18:19.281Z,27.50
2018-09-20T16:20:48.488Z,27.40
2018-09-20T16:23:17.393Z,27.40
2018-09-20T16:25:46.598Z,27.30
2018-09-20T16:28:36.460Z,27.20
2018-09-20T16:31:24.021Z,27.20
2018-09-20T16:34:42.221Z,27.10
2018-09-20T16:37:30.241Z,27.00
2018-09-20T16:40:02.370Z,26.90
2018-09-20T16:42:36.237Z,26.90
2018-09-20T16:45:05.451Z,26.80
2018-09-20T16:47:34.553Z,26.80
2018-09-20T16:50:03.369Z,26.70
2018-09-20T16:52:32.521Z,26.60
2018-09-20T16:55:01.686Z,26.60
2018-09-20T16:57:30.751Z,26.50
2018-09-20T16:59:59.790Z,26.50
2018-09-20T17:02:28.612Z,26.40
2018-09-20T17:04:57.755Z,26.30
2018-09-20T17:07:27.125Z,26.20
2018-09-20T17:09:56.311Z,26.20
2018-09-20T17:12:25.153Z,26.10
2018-09-20T17:14:54.398Z,26.00
2018-09-20T17:17:23.657Z,25.90
2018-09-20T17:19:52.876Z,25.80
2018-09-20T17:22:21.796Z,25.70
2018-09-20T17:24:50.847Z,25.60
2018-09-20T17:27:19.934Z,25.50
2018-09-20T17:29:49.136Z,25.50
2018-09-20T17:32:18.331Z,25.50
2018-09-20T17:34:48.062Z,25.40
2018-09-20T17:37:19.626Z,25.30
2018-09-20T17:39:50.943Z,25.20
2018-09-20T17:42:21.317Z,25.10
2018-09-20T17:44:50.164Z,25.00
2018-09-20T17:47:19.027Z,25.00
2018-09-20T17:49:48.259Z,24.90
2018-09-20T17:52:18.036Z,24.90
2018-09-20T17:54:48.045Z,24.80
2018-09-20T17:57:18.063Z,24.80
2018-09-20T17:59:47.302Z,24.70
2018-09-20T18:02:16.192Z,24.70
2018-09-20T18:04:45.139Z,24.60
2018-09-20T18:07:14.279Z,24.60
2018-09-20T18:09:43.402Z,24.60
2018-09-20T18:12:12.337Z,24.50
2018-09-20T18:14:41.149Z,24.50
2018-09-20T18:17:10.001Z,24.50
2018-09-20T18:19:39.031Z,24.40
2018-09-20T18:22:08.354Z,24.30
2018-09-20T18:24:37.156Z,24.30
2018-09-20T18:27:05.922Z,24.30
2018-09-20T18:29:35.029Z,24.30
2018-09-20T18:32:03.952Z,24.20
2018-09-20T18:34:32.794Z,24.20
2018-09-20T18:37:01.600Z,24.10
2018-09-20T18:39:30.653Z,24.10
2018-09-20T18:41:59.660Z,24.10
2018-09-20T18:44:28.660Z,24.00
2018-09-20T18:46:57.765Z,24.00
2018-09-20T18:49:26.636Z,23.90
2018-09-20T18:51:55.485Z,23.80
2018-09-20T18:54:24.393Z,23.60
2018-09-20T18:56:53.257Z,23.60
2018-09-20T18:59:22.167Z,23.70
2018-09-20T19:01:50.965Z,23.60
2018-09-20T19:04:19.753Z,23.60
2018-09-20T19:06:48.550Z,23.50
2018-09-20T19:09:17.428Z,23.30
2018-09-20T19:11:46.275Z,23.10
2018-09-20T19:14:15.072Z,22.90
2018-09-20T19:16:43.865Z,23.10
2018-09-20T19:19:13.055Z,23.10
2018-09-20T19:21:41.831Z,23.10
2018-09-20T19:24:10.685Z,23.10
2018-09-20T19:26:39.544Z,23.00
2018-09-20T19:29:08.368Z,22.90
2018-09-20T19:31:37.201Z,22.80
2018-09-20T19:34:05.979Z,22.60
2018-09-20T19:36:34.886Z,22.50
2018-09-20T19:39:04.438Z,22.40
2018-09-20T19:41:33.300Z,22.40
2018-09-20T19:44:02.122Z,22.60
2018-09-20T19:46:30.982Z,22.50
2018-09-20T19:48:59.898Z,22.40
2018-09-20T19:51:28.728Z,22.40
2018-09-20T19:53:57.839Z,22.40
2018-09-20T19:56:26.692Z,22.30
2018-09-20T19:58:55.800Z,22.20
2018-09-20T20:01:24.664Z,22.10
2018-09-20T20:03:53.441Z,22.10
2018-09-20T20:06:22.492Z,22.00
2018-09-20T20:08:51.708Z,22.00
2018-09-20T20:11:20.818Z,22.00
2018-09-20T20:13:49.875Z,22.10
2018-09-20T20:16:18.696Z,22.20
2018-09-20T20:18:47.492Z,22.20
2018-09-20T20:21:16.299Z,22.20
2018-09-20T20:23:45.115Z,22.10
2018-09-20T20:26:14.018Z,22.10
2018-09-20T20:28:42.787Z,22.20
2018-09-20T20:31:11.633Z,22.20
2018-09-20T20:33:40.737Z,22.20
2018-09-20T20:36:09.586Z,22.20
2018-09-20T20:38:38.417Z,22.20
2018-09-20T20:41:07.247Z,22.20
2018-09-20T20:43:36.115Z,22.10
2018-09-20T20:46:04.948Z,22.00
2018-09-20T20:48:33.792Z,22.00
2018-09-20T20:51:02.664Z,22.00
2018-09-20T20:53:31.505Z,21.90
2018-09-20T20:56:00.305Z,21.90
2018-09-20T20:58:29.199Z,21.90
2018-09-20T21:00:57.997Z,21.90
2018-09-20T21:03:26.776Z,21.80
2018-09-20T21:05:55.551Z,21.70
2018-09-20T21:08:24.413Z,21.70
2018-09-20T21:10:53.240Z,21.60
2018-09-20T21:13:22.033Z,21.60
2018-09-20T21:15:50.841Z,21.50
2018-09-20T21:18:19.625Z,21.50
2018-09-20T21:20:48.438Z,21.50
2018-09-20T21:23:17.217Z,21.50
2018-09-20T21:25:45.995Z,21.50
2018-09-20T21:28:14.836Z,21.50
2018-09-20T21:30:43.630Z,21.50
2018-09-20T21:33:12.486Z,21.40
2018-09-20T21:35:41.316Z,21.40
2018-09-20T21:38:10.136Z,21.30
2018-09-20T21:40:39.063Z,21.30
2018-09-20T21:43:07.836Z,21.20
2018-09-20T21:45:36.672Z,21.20
2018-09-20T21:48:05.563Z,21.20
2018-09-20T21:50:34.373Z,21.10
2018-09-20T21:53:03.213Z,21.10
2018-09-20T21:55:32.062Z,21.10
2018-09-20T21:58:00.904Z,21.10
2018-09-20T22:00:29.743Z,21.00
2018-09-20T22:03:03.651Z,20.90
2018-09-20T22:05:33.856Z,20.90
2018-09-20T22:08:02.631Z,20.90
2018-09-20T22:10:31.797Z,20.80
2018-09-20T22:13:00.621Z,20.80
2018-09-20T22:15:30.214Z,20.80
2018-09-20T22:17:59.501Z,20.70
2018-09-20T22:20:30.657Z,20.70
2018-09-20T22:22:59.535Z,20.70
2018-09-20T22:25:28.308Z,20.70
2018-09-20T22:27:57.156Z,20.70
2018-09-20T22:30:25.988Z,20.70
2018-09-20T22:32:54.762Z,20.60
2018-09-20T22:35:23.693Z,20.40
2018-09-20T22:37:52.492Z,20.20
2018-09-20T22:40:21.273Z,20.20
2018-09-20T22:42:50.074Z,20.20
2018-09-20T22:45:18.928Z,20.20
2018-09-20T22:47:47.710Z,20.20
2018-09-20T22:50:16.530Z,20.20
2018-09-20T22:52:45.307Z,20.20
2018-09-20T22:55:14.106Z,20.10
2018-09-20T22:57:42.902Z,20.10
2018-09-20T23:00:11.721Z,20.00
2018-09-20T23:02:40.603Z,19.90
2018-09-20T23:05:09.434Z,19.90
2018-09-20T23:07:38.243Z,19.90
2018-09-20T23:10:07.123Z,20.00
2018-09-20T23:12:35.903Z,20.00
2018-09-20T23:15:04.773Z,20.00
2018-09-20T23:17:33.553Z,20.00
2018-09-20T23:20:02.340Z,19.90
2018-09-20T23:22:31.109Z,19.90
2018-09-20T23:24:59.921Z,19.80
2018-09-20T23:27:28.722Z,19.90
2018-09-20T23:29:57.533Z,19.80
2018-09-20T23:32:26.325Z,19.70
2018-09-20T23:34:55.152Z,19.60
2018-09-20T23:37:23.952Z,19.60
2018-09-20T23:39:52.794Z,19.50
2018-09-20T23:42:21.560Z,19.50
2018-09-20T23:44:50.320Z,19.40
2018-09-20T23:47:19.074Z,19.40
2018-09-20T23:49:47.866Z,19.50
2018-09-20T23:52:16.647Z,19.40
2018-09-20T23:54:45.436Z,19.40
2018-09-20T23:57:14.215Z,19.30
2018-09-20T23:59:42.996Z,19.30
